sensor_id;sensor_type;location;lat;lon;timestamp;pressure;altitude;pressure_sealevel;temperature;humidity
52855;BME280;38719;51.418;7.286;2023-04-25T00:01:13;99163.97;;;8.81;64.17
52855;BME280;38719;51.418;7.286;2023-04-25T00:03:41;99161.94;;;8.69;63.77
52855;BME280;38719;51.418;7.286;2023-04-25T00:06:08;99158.97;;;8.58;64.99
52855;BME280;38719;51.418;7.286;2023-04-25T00:08:36;99158.88;;;8.59;64.07
52855;BME280;38719;51.418;7.286;2023-04-25T00:11:04;99165.44;;;8.52;65.14
52855;BME280;38719;51.418;7.286;2023-04-25T00:13:32;99160.69;;;8.39;65.53
52855;BME280;38719;51.418;7.286;2023-04-25T00:16:00;99176.22;;;8.66;64.79
52855;BME280;38719;51.418;7.286;2023-04-25T00:18:29;99169.13;;;8.67;64.31
52855;BME280;38719;51.418;7.286;2023-04-25T00:20:56;99166.47;;;8.84;64.64
52855;BME280;38719;51.418;7.286;2023-04-25T00:23:24;99163.91;;;8.83;64.44
52855;BME280;38719;51.418;7.286;2023-04-25T00:25:51;99159.22;;;8.88;63.94
52855;BME280;38719;51.418;7.286;2023-04-25T00:28:19;99169.75;;;8.90;63.96
52855;BME280;38719;51.418;7.286;2023-04-25T00:30:48;99167.97;;;9.08;63.61
52855;BME280;38719;51.418;7.286;2023-04-25T00:33:15;99172.78;;;8.82;64.48
52855;BME280;38719;51.418;7.286;2023-04-25T00:35:43;99163.91;;;9.00;63.66
52855;BME280;38719;51.418;7.286;2023-04-25T00:38:10;99167.97;;;8.73;65.50
52855;BME280;38719;51.418;7.286;2023-04-25T00:40:38;99161.88;;;8.88;64.79
52855;BME280;38719;51.418;7.286;2023-04-25T00:43:05;99171.00;;;9.00;64.67
52855;BME280;38719;51.418;7.286;2023-04-25T00:45:37;99174.28;;;8.87;64.52
52855;BME280;38719;51.418;7.286;2023-04-25T00:48:06;99173.59;;;8.84;65.73
52855;BME280;38719;51.418;7.286;2023-04-25T00:50:34;99161.94;;;9.04;64.05
52855;BME280;38719;51.418;7.286;2023-04-25T00:53:03;99168.72;;;8.92;64.66
52855;BME280;38719;51.418;7.286;2023-04-25T00:55:30;99163.91;;;9.00;64.38
52855;BME280;38719;51.418;7.286;2023-04-25T00:57:58;99164.31;;;8.56;65.31
52855;BME280;38719;51.418;7.286;2023-04-25T01:00:26;99163.69;;;8.87;64.82
52855;BME280;38719;51.418;7.286;2023-04-25T01:02:54;99164.97;;;8.61;65.92
52855;BME280;38719;51.418;7.286;2023-04-25T01:05:23;99166.69;;;8.62;66.62
52855;BME280;38719;51.418;7.286;2023-04-25T01:07:51;99167.47;;;8.82;66.27
52855;BME280;38719;51.418;7.286;2023-04-25T01:10:19;99165.75;;;8.81;65.42
52855;BME280;38719;51.418;7.286;2023-04-25T01:12:47;99171.63;;;8.87;65.96
52855;BME280;38719;51.418;7.286;2023-04-25T01:15:14;99176.53;;;9.13;64.86
52855;BME280;38719;51.418;7.286;2023-04-25T01:17:42;99169.44;;;8.96;64.59
52855;BME280;38719;51.418;7.286;2023-04-25T01:20:11;99163.09;;;8.98;64.88
52855;BME280;38719;51.418;7.286;2023-04-25T01:22:40;99170.44;;;8.93;66.26
52855;BME280;38719;51.418;7.286;2023-04-25T01:25:08;99169.22;;;8.46;67.75
52855;BME280;38719;51.418;7.286;2023-04-25T01:27:36;99160.53;;;8.62;67.75
52855;BME280;38719;51.418;7.286;2023-04-25T01:30:05;99160.75;;;8.92;66.24
52855;BME280;38719;51.418;7.286;2023-04-25T01:32:33;99163.59;;;8.89;66.58
52855;BME280;38719;51.418;7.286;2023-04-25T01:35:05;99169.75;;;8.72;66.54
52855;BME280;38719;51.418;7.286;2023-04-25T01:37:35;99174.97;;;8.74;66.66
52855;BME280;38719;51.418;7.286;2023-04-25T01:40:06;99176.06;;;9.04;66.15
52855;BME280;38719;51.418;7.286;2023-04-25T01:42:35;99175.13;;;9.06;66.38
52855;BME280;38719;51.418;7.286;2023-04-25T01:45:03;99178.72;;;8.87;67.77
52855;BME280;38719;51.418;7.286;2023-04-25T01:47:31;99174.44;;;8.84;67.39
52855;BME280;38719;51.418;7.286;2023-04-25T01:49:58;99179.97;;;8.80;68.17
52855;BME280;38719;51.418;7.286;2023-04-25T01:52:26;99185.22;;;8.81;68.44
52855;BME280;38719;51.418;7.286;2023-04-25T01:54:55;99193.91;;;9.02;66.83
52855;BME280;38719;51.418;7.286;2023-04-25T01:57:25;99185.94;;;9.02;66.45
52855;BME280;38719;51.418;7.286;2023-04-25T01:59:54;99184.69;;;9.10;67.09
52855;BME280;38719;51.418;7.286;2023-04-25T02:02:25;99191.06;;;9.06;67.59
52855;BME280;38719;51.418;7.286;2023-04-25T02:04:52;99199.03;;;9.06;66.34
52855;BME280;38719;51.418;7.286;2023-04-25T02:07:20;99196.44;;;8.69;67.98
52855;BME280;38719;51.418;7.286;2023-04-25T02:09:48;99202.09;;;8.80;67.65
52855;BME280;38719;51.418;7.286;2023-04-25T02:12:15;99193.91;;;8.85;67.48
52855;BME280;38719;51.418;7.286;2023-04-25T02:14:44;99195.28;;;8.92;67.12
52855;BME280;38719;51.418;7.286;2023-04-25T02:17:12;99196.38;;;9.06;66.78
52855;BME280;38719;51.418;7.286;2023-04-25T02:19:39;99200.44;;;8.95;66.49
52855;BME280;38719;51.418;7.286;2023-04-25T02:22:07;99212.44;;;8.67;67.78
52855;BME280;38719;51.418;7.286;2023-04-25T02:24:34;99201.66;;;8.53;68.35
52855;BME280;38719;51.418;7.286;2023-04-25T02:27:02;99197.81;;;8.59;67.58
52855;BME280;38719;51.418;7.286;2023-04-25T02:29:30;99209.53;;;8.91;67.35
52855;BME280;38719;51.418;7.286;2023-04-25T02:31:58;99213.09;;;8.73;66.96
52855;BME280;38719;51.418;7.286;2023-04-25T02:34:26;99209.97;;;8.82;67.46
52855;BME280;38719;51.418;7.286;2023-04-25T02:36:53;99209.97;;;8.82;67.40
52855;BME280;38719;51.418;7.286;2023-04-25T02:39:21;99206.50;;;8.80;67.43
52855;BME280;38719;51.418;7.286;2023-04-25T02:41:51;99207.47;;;8.79;67.91
52855;BME280;38719;51.418;7.286;2023-04-25T02:44:19;99208.03;;;8.85;67.85
52855;BME280;38719;51.418;7.286;2023-04-25T02:46:47;99213.94;;;8.91;66.86
52855;BME280;38719;51.418;7.286;2023-04-25T02:49:16;99220.44;;;8.29;68.50
52855;BME280;38719;51.418;7.286;2023-04-25T02:51:43;99208.22;;;8.63;68.69
52855;BME280;38719;51.418;7.286;2023-04-25T02:54:10;99204.94;;;8.58;67.71
52855;BME280;38719;51.418;7.286;2023-04-25T02:56:38;99214.44;;;8.81;67.42
52855;BME280;38719;51.418;7.286;2023-04-25T02:59:05;99208.69;;;8.54;68.75
52855;BME280;38719;51.418;7.286;2023-04-25T03:01:33;99212.41;;;8.50;68.69
52855;BME280;38719;51.418;7.286;2023-04-25T03:04:00;99213.31;;;8.68;68.37
52855;BME280;38719;51.418;7.286;2023-04-25T03:06:30;99216.19;;;8.81;67.64
52855;BME280;38719;51.418;7.286;2023-04-25T03:08:58;99209.59;;;8.53;68.95
52855;BME280;38719;51.418;7.286;2023-04-25T03:11:26;99224.56;;;8.73;68.89
52855;BME280;38719;51.418;7.286;2023-04-25T03:13:53;99224.66;;;8.89;67.66
52855;BME280;38719;51.418;7.286;2023-04-25T03:16:21;99229.78;;;8.75;68.89
52855;BME280;38719;51.418;7.286;2023-04-25T03:18:49;99221.50;;;8.44;70.15
52855;BME280;38719;51.418;7.286;2023-04-25T03:21:17;99225.44;;;8.35;70.32
52855;BME280;38719;51.418;7.286;2023-04-25T03:23:46;99225.00;;;8.45;70.60
52855;BME280;38719;51.418;7.286;2023-04-25T03:26:13;99219.03;;;8.78;69.45
52855;BME280;38719;51.418;7.286;2023-04-25T03:28:41;99223.00;;;8.50;69.38
52855;BME280;38719;51.418;7.286;2023-04-25T03:31:09;99224.84;;;8.67;69.38
52855;BME280;38719;51.418;7.286;2023-04-25T03:33:36;99229.38;;;8.46;69.45
52855;BME280;38719;51.418;7.286;2023-04-25T03:36:05;99226.97;;;8.60;69.35
52855;BME280;38719;51.418;7.286;2023-04-25T03:38:32;99230.63;;;8.58;70.48
52855;BME280;38719;51.418;7.286;2023-04-25T03:41:02;99229.81;;;8.55;70.44
52855;BME280;38719;51.418;7.286;2023-04-25T03:43:29;99234.06;;;8.77;69.47
52855;BME280;38719;51.418;7.286;2023-04-25T03:45:57;99235.81;;;8.40;69.96
52855;BME280;38719;51.418;7.286;2023-04-25T03:48:25;99245.38;;;8.63;69.16
52855;BME280;38719;51.418;7.286;2023-04-25T03:50:53;99238.00;;;8.51;69.88
52855;BME280;38719;51.418;7.286;2023-04-25T03:53:20;99242.09;;;8.58;69.60
52855;BME280;38719;51.418;7.286;2023-04-25T03:55:48;99244.66;;;8.41;70.53
52855;BME280;38719;51.418;7.286;2023-04-25T03:58:17;99234.50;;;8.50;69.14
52855;BME280;38719;51.418;7.286;2023-04-25T04:00:44;99243.50;;;8.65;70.34
52855;BME280;38719;51.418;7.286;2023-04-25T04:03:12;99249.53;;;8.50;70.15
52855;BME280;38719;51.418;7.286;2023-04-25T04:05:39;99236.81;;;8.76;69.85
52855;BME280;38719;51.418;7.286;2023-04-25T04:08:07;99242.22;;;8.74;70.10
52855;BME280;38719;51.418;7.286;2023-04-25T04:10:35;99247.41;;;8.58;69.51
52855;BME280;38719;51.418;7.286;2023-04-25T04:13:02;99253.63;;;8.57;68.84
52855;BME280;38719;51.418;7.286;2023-04-25T04:15:31;99252.19;;;8.50;68.90
52855;BME280;38719;51.418;7.286;2023-04-25T04:17:59;99258.00;;;8.58;67.99
52855;BME280;38719;51.418;7.286;2023-04-25T04:20:29;99264.66;;;8.29;70.73
52855;BME280;38719;51.418;7.286;2023-04-25T04:22:57;99258.94;;;8.57;68.51
52855;BME280;38719;51.418;7.286;2023-04-25T04:25:25;99253.25;;;8.65;68.56
52855;BME280;38719;51.418;7.286;2023-04-25T04:27:52;99270.78;;;8.50;68.26
52855;BME280;38719;51.418;7.286;2023-04-25T04:30:21;99277.91;;;8.10;68.26
52855;BME280;38719;51.418;7.286;2023-04-25T04:32:51;99278.56;;;8.15;68.49
52855;BME280;38719;51.418;7.286;2023-04-25T04:35:19;99281.41;;;7.91;67.45
52855;BME280;38719;51.418;7.286;2023-04-25T04:37:46;99281.56;;;7.67;66.67
52855;BME280;38719;51.418;7.286;2023-04-25T04:40:14;99295.03;;;7.82;66.48
52855;BME280;38719;51.418;7.286;2023-04-25T04:42:42;99284.53;;;7.39;66.25
52855;BME280;38719;51.418;7.286;2023-04-25T04:45:10;99286.31;;;7.59;68.27
52855;BME280;38719;51.418;7.286;2023-04-25T04:47:38;99292.28;;;7.85;67.57
52855;BME280;38719;51.418;7.286;2023-04-25T04:50:08;99290.16;;;7.72;66.34
52855;BME280;38719;51.418;7.286;2023-04-25T04:52:36;99293.53;;;7.76;67.03
52855;BME280;38719;51.418;7.286;2023-04-25T04:55:04;99300.69;;;7.74;67.03
52855;BME280;38719;51.418;7.286;2023-04-25T04:57:32;99301.16;;;7.84;66.60
52855;BME280;38719;51.418;7.286;2023-04-25T05:00:00;99299.84;;;7.53;67.47
52855;BME280;38719;51.418;7.286;2023-04-25T05:02:28;99301.97;;;7.65;67.74
52855;BME280;38719;51.418;7.286;2023-04-25T05:04:56;99304.41;;;7.70;68.59
52855;BME280;38719;51.418;7.286;2023-04-25T05:07:25;99313.56;;;7.63;67.98
52855;BME280;38719;51.418;7.286;2023-04-25T05:09:52;99303.22;;;7.56;67.56
52855;BME280;38719;51.418;7.286;2023-04-25T05:12:20;99315.06;;;7.89;67.13
52855;BME280;38719;51.418;7.286;2023-04-25T05:14:47;99310.19;;;7.80;68.10
52855;BME280;38719;51.418;7.286;2023-04-25T05:17:15;99325.53;;;7.92;67.54
52855;BME280;38719;51.418;7.286;2023-04-25T05:19:42;99319.75;;;8.03;65.21
52855;BME280;38719;51.418;7.286;2023-04-25T05:22:10;99327.94;;;7.98;65.28
52855;BME280;38719;51.418;7.286;2023-04-25T05:24:39;99335.72;;;8.01;66.19
52855;BME280;38719;51.418;7.286;2023-04-25T05:27:06;99332.34;;;7.77;66.75
52855;BME280;38719;51.418;7.286;2023-04-25T05:29:34;99328.81;;;7.57;68.60
52855;BME280;38719;51.418;7.286;2023-04-25T05:32:01;99341.09;;;7.79;66.88
52855;BME280;38719;51.418;7.286;2023-04-25T05:34:29;99346.75;;;7.92;67.46
52855;BME280;38719;51.418;7.286;2023-04-25T05:36:56;99352.09;;;8.11;65.25
52855;BME280;38719;51.418;7.286;2023-04-25T05:39:24;99354.09;;;8.06;66.37
52855;BME280;38719;51.418;7.286;2023-04-25T05:41:52;99352.94;;;8.12;66.72
52855;BME280;38719;51.418;7.286;2023-04-25T05:44:21;99353.72;;;8.34;66.33
52855;BME280;38719;51.418;7.286;2023-04-25T05:46:48;99355.56;;;8.53;64.96
52855;BME280;38719;51.418;7.286;2023-04-25T05:49:16;99353.38;;;8.02;67.83
52855;BME280;38719;51.418;7.286;2023-04-25T05:51:45;99364.19;;;8.37;67.04
52855;BME280;38719;51.418;7.286;2023-04-25T05:54:12;99352.03;;;8.52;65.55
52855;BME280;38719;51.418;7.286;2023-04-25T05:56:39;99360.94;;;8.70;65.99
52855;BME280;38719;51.418;7.286;2023-04-25T05:59:08;99360.50;;;8.80;65.21
52855;BME280;38719;51.418;7.286;2023-04-25T06:01:36;99361.09;;;8.86;65.24
52855;BME280;38719;51.418;7.286;2023-04-25T06:04:04;99370.47;;;8.55;67.32
52855;BME280;38719;51.418;7.286;2023-04-25T06:06:32;99370.63;;;8.71;67.36
52855;BME280;38719;51.418;7.286;2023-04-25T06:08:59;99366.53;;;8.83;66.15
52855;BME280;38719;51.418;7.286;2023-04-25T06:11:27;99375.09;;;8.90;66.27
52855;BME280;38719;51.418;7.286;2023-04-25T06:13:54;99375.72;;;8.95;66.44
52855;BME280;38719;51.418;7.286;2023-04-25T06:16:23;99375.56;;;9.17;65.50
52855;BME280;38719;51.418;7.286;2023-04-25T06:18:52;99370.66;;;9.27;65.43
52855;BME280;38719;51.418;7.286;2023-04-25T06:21:20;99371.91;;;9.38;64.77
52855;BME280;38719;51.418;7.286;2023-04-25T06:23:47;99374.72;;;8.98;66.20
52855;BME280;38719;51.418;7.286;2023-04-25T06:26:15;99385.75;;;9.08;66.46
52855;BME280;38719;51.418;7.286;2023-04-25T06:28:43;99381.03;;;8.95;66.68
52855;BME280;38719;51.418;7.286;2023-04-25T06:31:10;99379.97;;;9.17;66.53
52855;BME280;38719;51.418;7.286;2023-04-25T06:33:39;99392.44;;;8.97;66.51
52855;BME280;38719;51.418;7.286;2023-04-25T06:36:07;99376.84;;;8.90;67.14
52855;BME280;38719;51.418;7.286;2023-04-25T06:38:34;99380.03;;;8.98;66.70
52855;BME280;38719;51.418;7.286;2023-04-25T06:41:02;99382.25;;;9.07;66.10
52855;BME280;38719;51.418;7.286;2023-04-25T06:43:29;99390.63;;;8.60;66.71
52855;BME280;38719;51.418;7.286;2023-04-25T06:45:59;99388.47;;;8.49;66.96
52855;BME280;38719;51.418;7.286;2023-04-25T06:48:28;99394.16;;;8.60;67.19
52855;BME280;38719;51.418;7.286;2023-04-25T06:50:57;99394.66;;;9.07;65.65
52855;BME280;38719;51.418;7.286;2023-04-25T06:53:24;99391.50;;;9.17;66.08
52855;BME280;38719;51.418;7.286;2023-04-25T06:55:52;99388.53;;;9.24;65.50
52855;BME280;38719;51.418;7.286;2023-04-25T06:58:19;99400.09;;;9.23;64.43
52855;BME280;38719;51.418;7.286;2023-04-25T07:00:47;99396.75;;;9.36;62.80
52855;BME280;38719;51.418;7.286;2023-04-25T07:03:14;99395.25;;;9.67;62.41
52855;BME280;38719;51.418;7.286;2023-04-25T07:05:42;99395.63;;;9.77;61.09
52855;BME280;38719;51.418;7.286;2023-04-25T07:08:13;99395.69;;;9.41;61.98
52855;BME280;38719;51.418;7.286;2023-04-25T07:10:41;99401.22;;;9.73;60.89
52855;BME280;38719;51.418;7.286;2023-04-25T07:13:08;99410.16;;;9.70;61.48
52855;BME280;38719;51.418;7.286;2023-04-25T07:15:36;99396.91;;;9.88;61.56
52855;BME280;38719;51.418;7.286;2023-04-25T07:18:03;99400.53;;;9.50;61.38
52855;BME280;38719;51.418;7.286;2023-04-25T07:20:31;99399.72;;;9.67;62.52
52855;BME280;38719;51.418;7.286;2023-04-25T07:22:59;99400.59;;;9.85;61.49
52855;BME280;38719;51.418;7.286;2023-04-25T07:25:27;99409.94;;;9.92;61.43
52855;BME280;38719;51.418;7.286;2023-04-25T07:27:55;99412.69;;;9.73;61.14
52855;BME280;38719;51.418;7.286;2023-04-25T07:30:22;99420.28;;;9.98;61.02
52855;BME280;38719;51.418;7.286;2023-04-25T07:32:50;99423.63;;;10.20;59.86
52855;BME280;38719;51.418;7.286;2023-04-25T07:35:18;99417.63;;;9.98;60.42
52855;BME280;38719;51.418;7.286;2023-04-25T07:37:45;99418.50;;;9.81;61.24
52855;BME280;38719;51.418;7.286;2023-04-25T07:40:13;99424.47;;;9.67;61.62
52855;BME280;38719;51.418;7.286;2023-04-25T07:42:43;99428.28;;;10.16;61.03
52855;BME280;38719;51.418;7.286;2023-04-25T07:45:10;99431.06;;;10.13;60.74
52855;BME280;38719;51.418;7.286;2023-04-25T07:47:38;99427.16;;;10.38;60.02
52855;BME280;38719;51.418;7.286;2023-04-25T07:50:06;99433.75;;;9.95;60.00
52855;BME280;38719;51.418;7.286;2023-04-25T07:52:34;99449.22;;;9.87;59.19
52855;BME280;38719;51.418;7.286;2023-04-25T07:55:01;99434.59;;;10.13;59.17
52855;BME280;38719;51.418;7.286;2023-04-25T07:57:29;99440.47;;;10.03;58.52
52855;BME280;38719;51.418;7.286;2023-04-25T07:59:58;99443.00;;;10.41;58.50
52855;BME280;38719;51.418;7.286;2023-04-25T08:02:26;99444.59;;;10.61;58.05
52855;BME280;38719;51.418;7.286;2023-04-25T08:04:54;99453.09;;;10.68;57.39
52855;BME280;38719;51.418;7.286;2023-04-25T08:07:22;99451.84;;;10.75;56.06
52855;BME280;38719;51.418;7.286;2023-04-25T08:09:49;99462.38;;;10.43;57.84
52855;BME280;38719;51.418;7.286;2023-04-25T08:12:17;99461.03;;;10.52;56.48
52855;BME280;38719;51.418;7.286;2023-04-25T08:14:47;99472.00;;;10.63;55.34
52855;BME280;38719;51.418;7.286;2023-04-25T08:17:16;99481.81;;;10.45;55.79
52855;BME280;38719;51.418;7.286;2023-04-25T08:19:43;99477.31;;;10.28;56.04
52855;BME280;38719;51.418;7.286;2023-04-25T08:22:11;99475.69;;;10.25;56.65
52855;BME280;38719;51.418;7.286;2023-04-25T08:24:38;99483.38;;;10.49;56.40
52855;BME280;38719;51.418;7.286;2023-04-25T08:27:06;99480.81;;;10.81;55.08
52855;BME280;38719;51.418;7.286;2023-04-25T08:29:34;99484.38;;;11.13;53.97
52855;BME280;38719;51.418;7.286;2023-04-25T08:32:01;99498.16;;;10.55;54.18
52855;BME280;38719;51.418;7.286;2023-04-25T08:34:30;99501.69;;;10.38;55.20
52855;BME280;38719;51.418;7.286;2023-04-25T08:36:58;99506.00;;;9.86;55.46
52855;BME280;38719;51.418;7.286;2023-04-25T08:39:25;99498.69;;;10.26;53.96
52855;BME280;38719;51.418;7.286;2023-04-25T08:41:53;99505.69;;;10.46;53.98
52855;BME280;38719;51.418;7.286;2023-04-25T08:44:20;99503.06;;;10.80;53.32
52855;BME280;38719;51.418;7.286;2023-04-25T08:46:48;99505.38;;;11.20;52.73
52855;BME280;38719;51.418;7.286;2023-04-25T08:49:17;99513.81;;;11.60;51.58
52855;BME280;38719;51.418;7.286;2023-04-25T08:51:47;99512.88;;;11.61;51.87
52855;BME280;38719;51.418;7.286;2023-04-25T08:54:16;99513.22;;;11.55;50.12
52855;BME280;38719;51.418;7.286;2023-04-25T08:56:47;99517.97;;;11.50;49.98
52855;BME280;38719;51.418;7.286;2023-04-25T08:59:16;99528.34;;;10.89;52.03
52855;BME280;38719;51.418;7.286;2023-04-25T09:01:44;99532.94;;;10.69;53.03
52855;BME280;38719;51.418;7.286;2023-04-25T09:04:12;99527.31;;;10.91;51.48
52855;BME280;38719;51.418;7.286;2023-04-25T09:06:40;99531.88;;;10.89;51.69
52855;BME280;38719;51.418;7.286;2023-04-25T09:09:09;99541.47;;;11.09;51.66
52855;BME280;38719;51.418;7.286;2023-04-25T09:11:37;99542.69;;;11.20;51.89
52855;BME280;38719;51.418;7.286;2023-04-25T09:14:13;99548.81;;;10.88;53.43
52855;BME280;38719;51.418;7.286;2023-04-25T09:16:57;99546.47;;;10.64;54.03
52855;BME280;38719;51.418;7.286;2023-04-25T09:19:27;99551.97;;;10.95;50.13
52855;BME280;38719;51.418;7.286;2023-04-25T09:22:06;99556.09;;;11.18;49.73
52855;BME280;38719;51.418;7.286;2023-04-25T09:24:37;99554.59;;;11.46;51.00
52855;BME280;38719;51.418;7.286;2023-04-25T09:27:05;99558.13;;;11.78;48.05
52855;BME280;38719;51.418;7.286;2023-04-25T09:29:34;99563.03;;;11.54;47.30
52855;BME280;38719;51.418;7.286;2023-04-25T09:32:14;99549.69;;;11.54;45.99
52855;BME280;38719;51.418;7.286;2023-04-25T09:34:43;99558.66;;;12.01;47.51
52855;BME280;38719;51.418;7.286;2023-04-25T09:37:11;99559.78;;;12.13;44.83
52855;BME280;38719;51.418;7.286;2023-04-25T09:39:40;99565.34;;;11.92;45.83
52855;BME280;38719;51.418;7.286;2023-04-25T09:42:09;99563.97;;;12.17;45.85
52855;BME280;38719;51.418;7.286;2023-04-25T09:44:36;99566.53;;;12.19;43.62
52855;BME280;38719;51.418;7.286;2023-04-25T09:47:09;99568.50;;;12.31;44.61
52855;BME280;38719;51.418;7.286;2023-04-25T09:49:39;99577.63;;;12.43;45.37
52855;BME280;38719;51.418;7.286;2023-04-25T09:52:07;99575.03;;;12.41;45.10
52855;BME280;38719;51.418;7.286;2023-04-25T09:54:34;99583.66;;;12.31;45.47
52855;BME280;38719;51.418;7.286;2023-04-25T09:57:10;99569.28;;;12.03;46.10
52855;BME280;38719;51.418;7.286;2023-04-25T09:59:42;99572.31;;;11.95;46.09
52855;BME280;38719;51.418;7.286;2023-04-25T10:02:10;99579.16;;;12.47;47.45
52855;BME280;38719;51.418;7.286;2023-04-25T10:04:38;99586.56;;;12.42;47.02
52855;BME280;38719;51.418;7.286;2023-04-25T10:07:07;99582.97;;;12.43;46.44
52855;BME280;38719;51.418;7.286;2023-04-25T10:09:37;99582.75;;;12.77;44.39
52855;BME280;38719;51.418;7.286;2023-04-25T10:12:07;99582.13;;;12.87;43.44
52855;BME280;38719;51.418;7.286;2023-04-25T10:14:35;99590.34;;;12.54;42.59
52855;BME280;38719;51.418;7.286;2023-04-25T10:17:03;99592.91;;;12.55;44.08
52855;BME280;38719;51.418;7.286;2023-04-25T10:19:31;99602.81;;;12.23;44.27
52855;BME280;38719;51.418;7.286;2023-04-25T10:22:04;99600.72;;;12.44;44.75
52855;BME280;38719;51.418;7.286;2023-04-25T10:24:34;99599.69;;;12.31;45.18
52855;BME280;38719;51.418;7.286;2023-04-25T10:27:02;99596.06;;;12.93;44.84
52855;BME280;38719;51.418;7.286;2023-04-25T10:29:33;99596.91;;;13.38;43.67
52855;BME280;38719;51.418;7.286;2023-04-25T10:32:00;99595.13;;;13.80;41.20
52855;BME280;38719;51.418;7.286;2023-04-25T10:34:38;99602.25;;;13.38;42.00
52855;BME280;38719;51.418;7.286;2023-04-25T10:37:08;99593.13;;;12.97;41.83
52855;BME280;38719;51.418;7.286;2023-04-25T10:39:38;99595.50;;;13.16;40.76
52855;BME280;38719;51.418;7.286;2023-04-25T10:42:07;99609.41;;;12.48;39.62
52855;BME280;38719;51.418;7.286;2023-04-25T10:44:38;99602.09;;;12.35;41.65
52855;BME280;38719;51.418;7.286;2023-04-25T10:47:07;99619.00;;;12.04;42.41
52855;BME280;38719;51.418;7.286;2023-04-25T10:49:37;99608.13;;;11.75;44.41
52855;BME280;38719;51.418;7.286;2023-04-25T10:52:16;99619.34;;;11.98;43.62
52855;BME280;38719;51.418;7.286;2023-04-25T10:54:48;99614.53;;;12.04;43.56
52855;BME280;38719;51.418;7.286;2023-04-25T10:57:30;99618.44;;;12.45;42.50
52855;BME280;38719;51.418;7.286;2023-04-25T11:00:01;99619.78;;;12.22;42.79
52855;BME280;38719;51.418;7.286;2023-04-25T11:02:32;99617.09;;;12.38;42.28
52855;BME280;38719;51.418;7.286;2023-04-25T11:05:04;99619.50;;;12.43;41.28
52855;BME280;38719;51.418;7.286;2023-04-25T11:07:37;99612.59;;;12.38;42.50
52855;BME280;38719;51.418;7.286;2023-04-25T11:10:06;99613.84;;;12.17;42.88
52855;BME280;38719;51.418;7.286;2023-04-25T11:12:34;99636.22;;;12.14;42.38
52855;BME280;38719;51.418;7.286;2023-04-25T11:15:04;99623.84;;;11.48;42.35
52855;BME280;38719;51.418;7.286;2023-04-25T11:17:33;99628.03;;;11.52;42.98
52855;BME280;38719;51.418;7.286;2023-04-25T11:20:01;99641.56;;;10.80;47.12
52855;BME280;38719;51.418;7.286;2023-04-25T11:22:33;99645.44;;;10.55;49.66
52855;BME280;38719;51.418;7.286;2023-04-25T11:25:04;99651.56;;;10.57;51.44
52855;BME280;38719;51.418;7.286;2023-04-25T11:27:32;99647.75;;;10.98;51.91
52855;BME280;38719;51.418;7.286;2023-04-25T11:30:12;99651.28;;;10.81;51.12
52855;BME280;38719;51.418;7.286;2023-04-25T11:32:40;99664.19;;;10.71;52.88
52855;BME280;38719;51.418;7.286;2023-04-25T11:35:08;99662.78;;;10.64;53.74
52855;BME280;38719;51.418;7.286;2023-04-25T11:37:36;99665.94;;;10.16;53.32
52855;BME280;38719;51.418;7.286;2023-04-25T11:40:06;99673.78;;;10.39;54.80
52855;BME280;38719;51.418;7.286;2023-04-25T11:42:37;99672.28;;;10.51;53.37
52855;BME280;38719;51.418;7.286;2023-04-25T11:45:06;99672.19;;;10.15;53.51
52855;BME280;38719;51.418;7.286;2023-04-25T11:47:35;99672.88;;;10.57;52.66
52855;BME280;38719;51.418;7.286;2023-04-25T11:50:04;99671.47;;;10.85;52.43
52855;BME280;38719;51.418;7.286;2023-04-25T11:52:41;99676.25;;;10.61;52.24
52855;BME280;38719;51.418;7.286;2023-04-25T11:55:09;99671.22;;;10.36;53.50
52855;BME280;38719;51.418;7.286;2023-04-25T11:57:38;99667.16;;;10.83;53.16
52855;BME280;38719;51.418;7.286;2023-04-25T12:00:11;99664.69;;;11.48;50.59
52855;BME280;38719;51.418;7.286;2023-04-25T12:02:45;99658.72;;;11.43;48.45
52855;BME280;38719;51.418;7.286;2023-04-25T12:05:14;99673.78;;;10.75;50.05
52855;BME280;38719;51.418;7.286;2023-04-25T12:08:09;99658.66;;;11.44;49.29
52855;BME280;38719;51.418;7.286;2023-04-25T12:10:37;99660.59;;;11.58;47.80
52855;BME280;38719;51.418;7.286;2023-04-25T12:13:20;99668.38;;;11.95;48.17
52855;BME280;38719;51.418;7.286;2023-04-25T12:15:48;99668.06;;;12.33;45.81
52855;BME280;38719;51.418;7.286;2023-04-25T12:18:20;99670.28;;;12.57;45.49
52855;BME280;38719;51.418;7.286;2023-04-25T12:20:48;99664.19;;;12.85;43.53
52855;BME280;38719;51.418;7.286;2023-04-25T12:23:16;99651.25;;;13.38;43.26
52855;BME280;38719;51.418;7.286;2023-04-25T12:25:44;99653.53;;;13.59;41.78
52855;BME280;38719;51.418;7.286;2023-04-25T12:28:15;99660.97;;;13.83;42.25
52855;BME280;38719;51.418;7.286;2023-04-25T12:30:55;99653.63;;;14.28;39.77
52855;BME280;38719;51.418;7.286;2023-04-25T12:33:26;99663.84;;;13.36;40.48
52855;BME280;38719;51.418;7.286;2023-04-25T12:35:54;99665.69;;;12.75;41.67
52855;BME280;38719;51.418;7.286;2023-04-25T12:38:23;99665.09;;;12.70;42.13
52855;BME280;38719;51.418;7.286;2023-04-25T12:40:51;99657.59;;;12.30;42.48
52855;BME280;38719;51.418;7.286;2023-04-25T12:43:19;99666.28;;;12.80;41.98
52855;BME280;38719;51.418;7.286;2023-04-25T12:45:48;99668.19;;;13.23;42.60
52855;BME280;38719;51.418;7.286;2023-04-25T12:48:16;99658.25;;;13.25;40.77
52855;BME280;38719;51.418;7.286;2023-04-25T12:50:46;99662.53;;;13.58;39.04
52855;BME280;38719;51.418;7.286;2023-04-25T12:53:15;99659.75;;;13.45;40.04
52855;BME280;38719;51.418;7.286;2023-04-25T12:55:42;99663.88;;;13.65;40.98
52855;BME280;38719;51.418;7.286;2023-04-25T12:58:12;99673.69;;;13.94;40.64
52855;BME280;38719;51.418;7.286;2023-04-25T13:00:39;99666.38;;;14.10;39.35
52855;BME280;38719;51.418;7.286;2023-04-25T13:03:07;99669.03;;;14.25;38.84
52855;BME280;38719;51.418;7.286;2023-04-25T13:05:36;99671.09;;;14.34;39.19
52855;BME280;38719;51.418;7.286;2023-04-25T13:08:05;99665.72;;;14.48;38.64
52855;BME280;38719;51.418;7.286;2023-04-25T13:10:32;99667.44;;;14.77;38.17
52855;BME280;38719;51.418;7.286;2023-04-25T13:13:02;99667.56;;;14.48;38.33
52855;BME280;38719;51.418;7.286;2023-04-25T13:15:29;99668.50;;;13.91;39.65